sensor_id;sensor_type;location;lat;lon;timestamp;temperature;humidity
43991;DHT22;29654;50.784;20.604;2023-07-28T00:03:22;21.40;49.90
43991;DHT22;29654;50.784;20.604;2023-07-28T00:08:25;21.30;49.80
43991;DHT22;29654;50.784;20.604;2023-07-28T00:13:30;21.40;50.00
43991;DHT22;29654;50.784;20.604;2023-07-28T00:18:33;21.40;50.10
43991;DHT22;29654;50.784;20.604;2023-07-28T00:23:36;21.40;50.00
43991;DHT22;29654;50.784;20.604;2023-07-28T00:28:40;21.40;49.90
43991;DHT22;29654;50.784;20.604;2023-07-28T00:33:43;21.40;50.10
43991;DHT22;29654;50.784;20.604;2023-07-28T00:38:46;21.40;50.00
43991;DHT22;29654;50.784;20.604;2023-07-28T00:43:50;21.40;50.10
43991;DHT22;29654;50.784;20.604;2023-07-28T00:49:12;21.40;50.10
43991;DHT22;29654;50.784;20.604;2023-07-28T00:54:30;21.40;50.40
43991;DHT22;29654;50.784;20.604;2023-07-28T00:59:37;21.40;50.00
43991;DHT22;29654;50.784;20.604;2023-07-28T01:04:42;21.40;50.20
43991;DHT22;29654;50.784;20.604;2023-07-28T01:09:55;21.50;50.10
43991;DHT22;29654;50.784;20.604;2023-07-28T01:15:09;21.50;50.30
43991;DHT22;29654;50.784;20.604;2023-07-28T01:20:16;21.50;50.20
43991;DHT22;29654;50.784;20.604;2023-07-28T01:25:39;21.50;50.10
43991;DHT22;29654;50.784;20.604;2023-07-28T01:30:51;21.60;50.70
43991;DHT22;29654;50.784;20.604;2023-07-28T01:36:00;21.50;50.30
43991;DHT22;29654;50.784;20.604;2023-07-28T01:41:23;21.60;50.30
43991;DHT22;29654;50.784;20.604;2023-07-28T01:46:28;21.60;50.20
43991;DHT22;29654;50.784;20.604;2023-07-28T01:51:31;21.70;50.20
43991;DHT22;29654;50.784;20.604;2023-07-28T01:56:40;21.80;50.10
43991;DHT22;29654;50.784;20.604;2023-07-28T02:01:49;21.90;50.00
43991;DHT22;29654;50.784;20.604;2023-07-28T02:06:55;22.00;49.80
43991;DHT22;29654;50.784;20.604;2023-07-28T02:12:00;22.10;49.60
43991;DHT22;29654;50.784;20.604;2023-07-28T02:17:10;22.20;49.30
43991;DHT22;29654;50.784;20.604;2023-07-28T02:22:14;22.20;49.10
43991;DHT22;29654;50.784;20.604;2023-07-28T02:27:22;22.30;48.90
43991;DHT22;29654;50.784;20.604;2023-07-28T02:32:32;22.40;48.90
43991;DHT22;29654;50.784;20.604;2023-07-28T02:37:37;22.50;48.80
43991;DHT22;29654;50.784;20.604;2023-07-28T02:42:40;22.50;48.50
43991;DHT22;29654;50.784;20.604;2023-07-28T02:47:45;22.60;48.60
43991;DHT22;29654;50.784;20.604;2023-07-28T02:52:48;22.70;48.40
43991;DHT22;29654;50.784;20.604;2023-07-28T02:57:51;22.70;48.40
43991;DHT22;29654;50.784;20.604;2023-07-28T03:02:58;22.80;48.50
43991;DHT22;29654;50.784;20.604;2023-07-28T03:08:23;22.80;48.50
43991;DHT22;29654;50.784;20.604;2023-07-28T03:13:28;22.80;48.30
43991;DHT22;29654;50.784;20.604;2023-07-28T03:18:33;22.80;48.30
43991;DHT22;29654;50.784;20.604;2023-07-28T03:23:36;22.90;48.30
43991;DHT22;29654;50.784;20.604;2023-07-28T03:28:42;22.90;48.60
43991;DHT22;29654;50.784;20.604;2023-07-28T03:33:47;22.90;48.70
43991;DHT22;29654;50.784;20.604;2023-07-28T03:38:53;22.90;49.00
43991;DHT22;29654;50.784;20.604;2023-07-28T03:44:04;22.80;49.20
43991;DHT22;29654;50.784;20.604;2023-07-28T03:49:18;22.80;49.40
43991;DHT22;29654;50.784;20.604;2023-07-28T03:54:22;22.80;49.30
43991;DHT22;29654;50.784;20.604;2023-07-28T03:59:51;22.90;49.30
43991;DHT22;29654;50.784;20.604;2023-07-28T04:04:58;22.90;49.60
43991;DHT22;29654;50.784;20.604;2023-07-28T04:10:22;23.00;49.50
43991;DHT22;29654;50.784;20.604;2023-07-28T04:15:29;23.10;49.30
43991;DHT22;29654;50.784;20.604;2023-07-28T04:20:44;23.10;49.40
43991;DHT22;29654;50.784;20.604;2023-07-28T04:25:48;23.20;49.50
43991;DHT22;29654;50.784;20.604;2023-07-28T04:30:55;23.30;49.20
43991;DHT22;29654;50.784;20.604;2023-07-28T04:36:27;23.30;49.10
43991;DHT22;29654;50.784;20.604;2023-07-28T04:41:35;23.30;49.20
43991;DHT22;29654;50.784;20.604;2023-07-28T04:46:53;23.30;49.10
43991;DHT22;29654;50.784;20.604;2023-07-28T04:52:02;23.40;49.40
43991;DHT22;29654;50.784;20.604;2023-07-28T04:57:31;23.40;49.30
43991;DHT22;29654;50.784;20.604;2023-07-28T05:02:38;23.40;49.40
43991;DHT22;29654;50.784;20.604;2023-07-28T05:07:46;23.30;49.30
43991;DHT22;29654;50.784;20.604;2023-07-28T05:13:08;23.50;49.30
43991;DHT22;29654;50.784;20.604;2023-07-28T05:18:12;23.40;49.10
43991;DHT22;29654;50.784;20.604;2023-07-28T05:23:41;23.50;49.30
43991;DHT22;29654;50.784;20.604;2023-07-28T05:29:06;23.60;49.30
43991;DHT22;29654;50.784;20.604;2023-07-28T05:34:10;23.50;49.30
43991;DHT22;29654;50.784;20.604;2023-07-28T05:39:20;23.70;49.20
43991;DHT22;29654;50.784;20.604;2023-07-28T05:44:27;23.70;49.00
43991;DHT22;29654;50.784;20.604;2023-07-28T05:49:36;23.80;49.00
43991;DHT22;29654;50.784;20.604;2023-07-28T05:54:43;23.80;48.80
43991;DHT22;29654;50.784;20.604;2023-07-28T05:59:50;24.00;48.40
43991;DHT22;29654;50.784;20.604;2023-07-28T06:04:55;24.00;49.00
43991;DHT22;29654;50.784;20.604;2023-07-28T06:10:00;24.10;48.40
43991;DHT22;29654;50.784;20.604;2023-07-28T06:15:05;24.00;48.10
43991;DHT22;29654;50.784;20.604;2023-07-28T06:20:17;24.20;48.10
43991;DHT22;29654;50.784;20.604;2023-07-28T06:25:23;24.20;47.90
43991;DHT22;29654;50.784;20.604;2023-07-28T06:30:52;24.30;47.90
43991;DHT22;29654;50.784;20.604;2023-07-28T06:36:17;24.40;47.60
43991;DHT22;29654;50.784;20.604;2023-07-28T06:41:23;24.40;48.00
43991;DHT22;29654;50.784;20.604;2023-07-28T06:46:34;24.60;48.00
43991;DHT22;29654;50.784;20.604;2023-07-28T06:51:41;24.60;47.60
43991;DHT22;29654;50.784;20.604;2023-07-28T06:56:52;24.70;47.50
43991;DHT22;29654;50.784;20.604;2023-07-28T07:02:08;24.80;47.60
43991;DHT22;29654;50.784;20.604;2023-07-28T07:07:13;24.90;47.70
43991;DHT22;29654;50.784;20.604;2023-07-28T07:12:23;24.90;47.80
43991;DHT22;29654;50.784;20.604;2023-07-28T07:17:31;25.00;47.50
43991;DHT22;29654;50.784;20.604;2023-07-28T07:22:34;25.10;47.60
43991;DHT22;29654;50.784;20.604;2023-07-28T07:27:41;25.10;48.00
43991;DHT22;29654;50.784;20.604;2023-07-28T07:32:49;25.10;48.30
43991;DHT22;29654;50.784;20.604;2023-07-28T07:38:01;25.20;48.60
43991;DHT22;29654;50.784;20.604;2023-07-28T07:43:05;25.50;49.10
43991;DHT22;29654;50.784;20.604;2023-07-28T07:48:10;25.70;49.10
43991;DHT22;29654;50.784;20.604;2023-07-28T07:53:12;25.90;48.90
43991;DHT22;29654;50.784;20.604;2023-07-28T07:58:18;26.00;48.40
43991;DHT22;29654;50.784;20.604;2023-07-28T08:03:22;26.00;48.60
43991;DHT22;29654;50.784;20.604;2023-07-28T08:08:25;26.10;48.70
43991;DHT22;29654;50.784;20.604;2023-07-28T08:13:29;26.10;48.60
43991;DHT22;29654;50.784;20.604;2023-07-28T08:18:32;26.20;49.00
43991;DHT22;29654;50.784;20.604;2023-07-28T08:23:35;26.20;48.70
43991;DHT22;29654;50.784;20.604;2023-07-28T08:28:40;26.20;48.80
43991;DHT22;29654;50.784;20.604;2023-07-28T08:33:43;26.20;49.10
43991;DHT22;29654;50.784;20.604;2023-07-28T08:38:46;26.20;48.90
43991;DHT22;29654;50.784;20.604;2023-07-28T08:43:52;26.20;49.00
43991;DHT22;29654;50.784;20.604;2023-07-28T08:48:57;26.20;49.30
43991;DHT22;29654;50.784;20.604;2023-07-28T08:54:00;26.10;49.20
43991;DHT22;29654;50.784;20.604;2023-07-28T08:59:04;26.10;49.20
43991;DHT22;29654;50.784;20.604;2023-07-28T09:04:10;26.10;49.60
43991;DHT22;29654;50.784;20.604;2023-07-28T09:09:14;26.00;50.00
43991;DHT22;29654;50.784;20.604;2023-07-28T09:14:27;25.90;50.00
43991;DHT22;29654;50.784;20.604;2023-07-28T09:25:13;25.90;50.60
43991;DHT22;29654;50.784;20.604;2023-07-28T09:30:20;25.90;50.90
43991;DHT22;29654;50.784;20.604;2023-07-28T09:35:23;25.80;50.90
43991;DHT22;29654;50.784;20.604;2023-07-28T09:40:26;25.90;51.10
43991;DHT22;29654;50.784;20.604;2023-07-28T09:45:33;25.90;51.20
43991;DHT22;29654;50.784;20.604;2023-07-28T09:50:38;26.00;51.60
43991;DHT22;29654;50.784;20.604;2023-07-28T09:55:42;26.10;51.80
43991;DHT22;29654;50.784;20.604;2023-07-28T10:00:50;26.20;51.60
43991;DHT22;29654;50.784;20.604;2023-07-28T10:05:54;26.20;51.50
43991;DHT22;29654;50.784;20.604;2023-07-28T10:10:58;26.20;51.20
43991;DHT22;29654;50.784;20.604;2023-07-28T10:16:07;26.20;51.10
43991;DHT22;29654;50.784;20.604;2023-07-28T10:21:18;26.20;51.40
43991;DHT22;29654;50.784;20.604;2023-07-28T10:26:35;26.10;51.80
43991;DHT22;29654;50.784;20.604;2023-07-28T10:31:50;26.20;52.40
43991;DHT22;29654;50.784;20.604;2023-07-28T10:36:57;26.20;52.70
43991;DHT22;29654;50.784;20.604;2023-07-28T10:42:08;26.20;52.00
43991;DHT22;29654;50.784;20.604;2023-07-28T10:47:20;26.20;52.30
43991;DHT22;29654;50.784;20.604;2023-07-28T10:52:24;26.20;52.30
43991;DHT22;29654;50.784;20.604;2023-07-28T10:57:27;26.20;52.20
43991;DHT22;29654;50.784;20.604;2023-07-28T11:02:32;26.20;52.30
43991;DHT22;29654;50.784;20.604;2023-07-28T11:07:35;26.20;52.30
43991;DHT22;29654;50.784;20.604;2023-07-28T11:12:44;26.20;52.10
43991;DHT22;29654;50.784;20.604;2023-07-28T11:18:05;26.20;52.20
43991;DHT22;29654;50.784;20.604;2023-07-28T11:23:14;26.10;52.20
43991;DHT22;29654;50.784;20.604;2023-07-28T11:28:19;26.00;52.00
43991;DHT22;29654;50.784;20.604;2023-07-28T11:33:24;26.00;52.50
43991;DHT22;29654;50.784;20.604;2023-07-28T11:38:28;26.00;52.80
43991;DHT22;29654;50.784;20.604;2023-07-28T11:43:34;26.00;53.00
43991;DHT22;29654;50.784;20.604;2023-07-28T11:48:39;26.10;52.90
43991;DHT22;29654;50.784;20.604;2023-07-28T11:53:42;26.10;53.10
43991;DHT22;29654;50.784;20.604;2023-07-28T11:58:52;26.20;53.20
43991;DHT22;29654;50.784;20.604;2023-07-28T12:03:57;26.30;53.10
43991;DHT22;29654;50.784;20.604;2023-07-28T12:09:05;26.30;53.10
43991;DHT22;29654;50.784;20.604;2023-07-28T12:14:12;26.40;53.30
43991;DHT22;29654;50.784;20.604;2023-07-28T12:19:17;26.40;53.00
43991;DHT22;29654;50.784;20.604;2023-07-28T12:24:20;26.50;53.20
43991;DHT22;29654;50.784;20.604;2023-07-28T12:29:23;26.50;52.90
43991;DHT22;29654;50.784;20.604;2023-07-28T12:34:27;26.50;53.20
43991;DHT22;29654;50.784;20.604;2023-07-28T12:39:32;26.60;53.60
43991;DHT22;29654;50.784;20.604;2023-07-28T12:44:38;26.80;53.50
43991;DHT22;29654;50.784;20.604;2023-07-28T12:49:43;27.00;53.60
43991;DHT22;29654;50.784;20.604;2023-07-28T12:54:46;27.20;53.40
43991;DHT22;29654;50.784;20.604;2023-07-28T12:59:58;27.30;53.00
43991;DHT22;29654;50.784;20.604;2023-07-28T13:05:11;27.50;52.90
43991;DHT22;29654;50.784;20.604;2023-07-28T13:10:19;27.60;52.80
43991;DHT22;29654;50.784;20.604;2023-07-28T13:15:27;27.80;52.60
43991;DHT22;29654;50.784;20.604;2023-07-28T13:20:47;27.90;52.20
43991;DHT22;29654;50.784;20.604;2023-07-28T13:26:12;28.10;52.10
43991;DHT22;29654;50.784;20.604;2023-07-28T13:31:16;28.20;52.00
43991;DHT22;29654;50.784;20.604;2023-07-28T13:36:51;28.30;52.30
43991;DHT22;29654;50.784;20.604;2023-07-28T13:48:23;28.60;51.60
43991;DHT22;29654;50.784;20.604;2023-07-28T13:53:41;28.70;51.60
43991;DHT22;29654;50.784;20.604;2023-07-28T13:58:54;29.00;51.40
43991;DHT22;29654;50.784;20.604;2023-07-28T14:04:15;29.10;51.30
43991;DHT22;29654;50.784;20.604;2023-07-28T14:09:49;29.50;51.30
43991;DHT22;29654;50.784;20.604;2023-07-28T14:15:19;29.60;50.50
43991;DHT22;29654;50.784;20.604;2023-07-28T14:20:55;29.80;50.00
43991;DHT22;29654;50.784;20.604;2023-07-28T14:26:32;30.10;51.00
43991;DHT22;29654;50.784;20.604;2023-07-28T14:32:11;30.30;49.10
43991;DHT22;29654;50.784;20.604;2023-07-28T14:37:34;30.40;48.90
43991;DHT22;29654;50.784;20.604;2023-07-28T14:42:45;30.50;48.60
43991;DHT22;29654;50.784;20.604;2023-07-28T14:47:51;30.60;48.00
43991;DHT22;29654;50.784;20.604;2023-07-28T14:53:01;30.70;47.80
43991;DHT22;29654;50.784;20.604;2023-07-28T14:58:12;30.60;47.10
43991;DHT22;29654;50.784;20.604;2023-07-28T15:03:28;30.70;46.80
43991;DHT22;29654;50.784;20.604;2023-07-28T15:08:35;30.70;47.30
43991;DHT22;29654;50.784;20.604;2023-07-28T15:13:56;30.70;47.00
43991;DHT22;29654;50.784;20.604;2023-07-28T15:19:46;30.80;46.70
43991;DHT22;29654;50.784;20.604;2023-07-28T15:25:26;30.70;46.40
43991;DHT22;29654;50.784;20.604;2023-07-28T15:30:49;30.70;46.80
43991;DHT22;29654;50.784;20.604;2023-07-28T15:35:58;30.80;45.80
43991;DHT22;29654;50.784;20.604;2023-07-28T15:41:07;30.70;46.10
43991;DHT22;29654;50.784;20.604;2023-07-28T15:46:20;30.70;46.00
43991;DHT22;29654;50.784;20.604;2023-07-28T15:51:26;30.60;45.40
43991;DHT22;29654;50.784;20.604;2023-07-28T15:56:29;30.40;45.50
43991;DHT22;29654;50.784;20.604;2023-07-28T16:01:50;30.40;45.50
43991;DHT22;29654;50.784;20.604;2023-07-28T16:07:05;30.30;44.90
43991;DHT22;29654;50.784;20.604;2023-07-28T16:12:09;30.00;45.50
43991;DHT22;29654;50.784;20.604;2023-07-28T16:17:13;29.90;45.60
43991;DHT22;29654;50.784;20.604;2023-07-28T16:22:16;29.80;45.80
43991;DHT22;29654;50.784;20.604;2023-07-28T16:27:19;29.60;45.40
43991;DHT22;29654;50.784;20.604;2023-07-28T16:32:24;29.30;45.20
43991;DHT22;29654;50.784;20.604;2023-07-28T16:37:27;28.80;45.50
43991;DHT22;29654;50.784;20.604;2023-07-28T16:42:30;28.40;46.20
43991;DHT22;29654;50.784;20.604;2023-07-28T16:47:34;28.10;46.80
43991;DHT22;29654;50.784;20.604;2023-07-28T16:52:37;27.80;47.40
43991;DHT22;29654;50.784;20.604;2023-07-28T16:57:40;27.60;48.00
43991;DHT22;29654;50.784;20.604;2023-07-28T17:02:44;27.40;48.40
43991;DHT22;29654;50.784;20.604;2023-07-28T17:07:50;27.30;48.80
43991;DHT22;29654;50.784;20.604;2023-07-28T17:12:52;27.10;49.20
43991;DHT22;29654;50.784;20.604;2023-07-28T17:17:57;27.00;49.40
43991;DHT22;29654;50.784;20.604;2023-07-28T17:23:00;26.90;49.60
43991;DHT22;29654;50.784;20.604;2023-07-28T17:28:03;26.80;49.90
43991;DHT22;29654;50.784;20.604;2023-07-28T17:33:08;26.60;50.10
43991;DHT22;29654;50.784;20.604;2023-07-28T17:38:11;26.50;50.60
43991;DHT22;29654;50.784;20.604;2023-07-28T17:43:14;26.40;50.40
43991;DHT22;29654;50.784;20.604;2023-07-28T17:48:18;26.20;50.60
43991;DHT22;29654;50.784;20.604;2023-07-28T17:53:24;26.00;50.90
43991;DHT22;29654;50.784;20.604;2023-07-28T17:58:27;25.80;51.20
43991;DHT22;29654;50.784;20.604;2023-07-28T18:03:32;25.60;51.40
43991;DHT22;29654;50.784;20.604;2023-07-28T18:08:34;25.60;51.80
43991;DHT22;29654;50.784;20.604;2023-07-28T18:13:37;25.40;52.10
43991;DHT22;29654;50.784;20.604;2023-07-28T18:18:42;25.30;52.20
43991;DHT22;29654;50.784;20.604;2023-07-28T18:23:45;25.30;52.60
43991;DHT22;29654;50.784;20.604;2023-07-28T18:28:48;25.20;52.80
43991;DHT22;29654;50.784;20.604;2023-07-28T18:33:52;25.20;53.10
43991;DHT22;29654;50.784;20.604;2023-07-28T18:38:55;25.20;53.20
43991;DHT22;29654;50.784;20.604;2023-07-28T18:43:58;25.30;53.20
43991;DHT22;29654;50.784;20.604;2023-07-28T18:49:05;25.40;53.40
43991;DHT22;29654;50.784;20.604;2023-07-28T18:54:08;25.30;53.70
43991;DHT22;29654;50.784;20.604;2023-07-28T18:59:10;25.30;53.50
43991;DHT22;29654;50.784;20.604;2023-07-28T19:04:17;25.30;53.50
43991;DHT22;29654;50.784;20.604;2023-07-28T19:09:20;25.30;53.70
43991;DHT22;29654;50.784;20.604;2023-07-28T19:14:29;25.30;53.70
43991;DHT22;29654;50.784;20.604;2023-07-28T19:19:37;25.30;54.00
43991;DHT22;29654;50.784;20.604;2023-07-28T19:25:02;25.30;53.70
43991;DHT22;29654;50.784;20.604;2023-07-28T19:30:07;25.20;54.20
43991;DHT22;29654;50.784;20.604;2023-07-28T19:35:13;25.20;53.50
43991;DHT22;29654;50.784;20.604;2023-07-28T19:40:17;25.10;53.50
43991;DHT22;29654;50.784;20.604;2023-07-28T19:45:20;25.10;53.20
43991;DHT22;29654;50.784;20.604;2023-07-28T19:50:26;24.90;53.20
43991;DHT22;29654;50.784;20.604;2023-07-28T19:55:31;24.90;53.40
43991;DHT22;29654;50.784;20.604;2023-07-28T20:00:54;24.80;54.10
43991;DHT22;29654;50.784;20.604;2023-07-28T20:06:00;24.70;53.30
43991;DHT22;29654;50.784;20.604;2023-07-28T20:11:04;24.60;53.80
43991;DHT22;29654;50.784;20.604;2023-07-28T20:16:13;24.50;53.50
43991;DHT22;29654;50.784;20.604;2023-07-28T20:21:18;24.40;54.20
43991;DHT22;29654;50.784;20.604;2023-07-28T20:26:42;24.30;53.90
43991;DHT22;29654;50.784;20.604;2023-07-28T20:31:44;24.20;54.60
43991;DHT22;29654;50.784;20.604;2023-07-28T20:36:49;24.20;54.10
43991;DHT22;29654;50.784;20.604;2023-07-28T20:41:52;24.10;54.30
43991;DHT22;29654;50.784;20.604;2023-07-28T20:46:56;24.10;54.30
43991;DHT22;29654;50.784;20.604;2023-07-28T20:52:02;24.00;54.30
43991;DHT22;29654;50.784;20.604;2023-07-28T20:57:06;24.00;54.50
43991;DHT22;29654;50.784;20.604;2023-07-28T21:02:12;23.90;54.30
43991;DHT22;29654;50.784;20.604;2023-07-28T21:07:20;23.90;54.50
43991;DHT22;29654;50.784;20.604;2023-07-28T21:12:25;23.90;54.60
43991;DHT22;29654;50.784;20.604;2023-07-28T21:17:31;23.80;55.20
43991;DHT22;29654;50.784;20.604;2023-07-28T21:22:38;23.70;54.60
43991;DHT22;29654;50.784;20.604;2023-07-28T21:27:46;23.70;54.60
43991;DHT22;29654;50.784;20.604;2023-07-28T21:32:49;23.60;54.40
43991;DHT22;29654;50.784;20.604;2023-07-28T21:37:55;23.60;54.60
43991;DHT22;29654;50.784;20.604;2023-07-28T21:42:58;23.50;55.00
43991;DHT22;29654;50.784;20.604;2023-07-28T21:48:06;23.50;55.00
43991;DHT22;29654;50.784;20.604;2023-07-28T21:53:11;23.50;55.50
43991;DHT22;29654;50.784;20.604;2023-07-28T21:58:15;23.50;55.60
43991;DHT22;29654;50.784;20.604;2023-07-28T22:03:19;23.50;55.90
43991;DHT22;29654;50.784;20.604;2023-07-28T22:08:26;23.60;56.10
43991;DHT22;29654;50.784;20.604;2023-07-28T22:13:34;23.60;56.60
43991;DHT22;29654;50.784;20.604;2023-07-28T22:18:37;23.70;56.60
43991;DHT22;29654;50.784;20.604;2023-07-28T22:23:42;23.70;56.70
43991;DHT22;29654;50.784;20.604;2023-07-28T22:28:49;23.80;56.90
43991;DHT22;29654;50.784;20.604;2023-07-28T22:33:53;23.90;56.70
43991;DHT22;29654;50.784;20.604;2023-07-28T22:39:00;24.00;56.70
43991;DHT22;29654;50.784;20.604;2023-07-28T22:44:04;24.00;56.70
43991;DHT22;29654;50.784;20.604;2023-07-28T22:49:07;24.00;56.20
43991;DHT22;29654;50.784;20.604;2023-07-28T22:54:13;24.00;56.00
43991;DHT22;29654;50.784;20.604;2023-07-28T22:59:17;24.00;55.90
43991;DHT22;29654;50.784;20.604;2023-07-28T23:04:21;24.00;55.90
43991;DHT22;29654;50.784;20.604;2023-07-28T23:09:25;24.00;55.90
43991;DHT22;29654;50.784;20.604;2023-07-28T23:14:32;24.00;56.30
43991;DHT22;29654;50.784;20.604;2023-07-28T23:19:37;24.00;56.80
43991;DHT22;29654;50.784;20.604;2023-07-28T23:24:47;24.00;56.60
43991;DHT22;29654;50.784;20.604;2023-07-28T23:29:52;24.00;57.10
43991;DHT22;29654;50.784;20.604;2023-07-28T23:34:59;24.00;56.60
43991;DHT22;29654;50.784;20.604;2023-07-28T23:40:07;24.00;56.60
43991;DHT22;29654;50.784;20.604;2023-07-28T23:45:11;24.10;57.00
43991;DHT22;29654;50.784;20.604;2023-07-28T23:50:17;24.00;56.70
43991;DHT22;29654;50.784;20.604;2023-07-28T23:55:23;24.00;56.80
